Tiempo atmosférico en la estación meteorológica de Valderredible, Cubillo de Ebro, Cantabria (765 m.)



Fecha
DESCASC
Temp. máxima en grados centígrados (hora)
DESCASC
Temp. mínima en grados centígrados (hora)
DESCASC
Temp. media en grados centígrados
DESCASC
Racha de viento máxima en m/sg (hora)
DESCASC
Velocidad máxima media en intervalos de 10 minutos(hora)
DESCASC
Precipitaciones diarias en mm
DESCASC
Precipitaciones de 00:00 a 06:00 en mm
DESCASC
Precipitaciones de 06:00 a 12:00 en mm
DESCASC
Precipitaciones de 12:00 a 18:00 en mm
DESCASC
Precipitaciones de 18:00 a 24:00 en mm
DESCASC
16-01-2020 13.6 (15:20) 8.1 (23:20) 10.9 16.11 (19:20) 9.17 (15:30) 0 0 0 0 0
15-01-2020 10.6 (14:10) 7.1 (00:00) 8.9 17.5 (07:50) 8.89 (01:30) 0.2 0 0.2 0 0
14-01-2020 10.4 (15:10) 1.7 (00:00) 6 13.89 (23:59) 6.94 (10:40) 0 0 0 0 0
13-01-2020 8.2 (16:10) -5.8 (06:20) 1.2 11.94 (21:40) 6.67 (15:50) 0 0 0 0 0
12-01-2020 9.3 (16:20) -5.8 (-00:0) 1.8 3.61 (14:10) 2.5 (14:10) 0 0 0 0 0
11-01-2020 11.2 (16:30) -2.5 (-00:0) 4.3 4.44 (15:40) 2.78 (15:40) 0 0 0 0 0
10-01-2020 7.3 (15:40) -1.1 (-00:0) 3.1 9.17 (14:10) 4.17 (14:10) 0.8 0 0.4 0.4 0
09-01-2020 10.9 (14:50) -2 (-00:0) 4.4 9.44 (14:10) 5.83 (14:10) 0 0 0 0 0
08-01-2020 15.8 (16:20) -4 (-00:0) 5.9 3.89 (15:20) 3.06 (15:20) 0 0 0 0 0
07-01-2020 13.2 (16:20) -5.2 (-00:0) 4 4.72 (19:30) 3.33 (19:30) 0 0 0 0 0
06-01-2020 9.5 (15:40) -5.9 (-00:0) 1.8 5.28 (15:10) 3.33 (15:10) 0 0 0 0 0
05-01-2020 13 (16:30) -3.5 (-00:0) 4.8 3.89 (05:00) 2.5 (07:10) 0 0 0 0 0
04-01-2020 7.6 (14:30) -1.2 (-00:0) 3.2 6.94 (14:50) 3.33 (21:30) 0.2 0 0.2 0 0
03-01-2020 5.6 (16:10) -1.3 (-00:0) 2.1 3.89 (12:00) 2.5 (12:00) 0.2 0 0 0.2 0
02-01-2020 11.1 (13:30) -6.4 (-00:0) 2.4 7.78 (13:50) 5 (13:50) 0 0 0 0 0
01-01-2020 12.6 (15:20) -8.1 (-00:0) 2.3 3.89 (21:00) 2.78 (21:00) 0 0 0 0 0
31-12-2019 -- (--) -- (--) -- -- (--) -- (--) 0 0 0 0 0
30-12-2019 -- (--) -- (--) -- -- (--) -- (--) 0 0 0 0 0
29-12-2019 12.3 (15:40) -7.5 (-00:0) 2.4 3.33 (19:40) 2.5 (19:40) 0 0 0 0 0
28-12-2019 11.5 (15:20) -7.7 (-00:0) 1.9 4.72 (13:00) 3.33 (13:10) 0 0 0 0 0
27-12-2019 5.5 (16:30) -5.4 (-00:0) 0 3.89 (14:30) 2.78 (15:40) 0 0 0 0 0
26-12-2019 12.5 (15:30) -1.5 (-00:0) 5.5 5.83 (01:10) 3.33 (16:20) 0 0 0 0 0
25-12-2019 18.1 (14:40) 4.7 (00:00) 11.4 7.22 (15:40) 3.89 (15:40) 0 0 0 0 0
24-12-2019 14 (16:30) 7.3 (00:00) 10.7 7.78 (13:30) 4.72 (14:00) 0 0 0 0 0
23-12-2019 10.9 (15:40) -0.7 (-00:0) 5.1 8.89 (12:20) 4.44 (22:40) 0 0 0 0 0
22-12-2019 13.4 (15:50) 0.7 (00:00) 7 20.56 (00:20) 11.94 (00:20) 0.6 0 0.4 0.2 0
21-12-2019 14.8 (12:30) 4.9 (00:00) 9.9 24.72 (11:50) 12.5 (13:30) 6.4 0 0.6 3.8 2
20-12-2019 11.6 (00:20) 4.2 (00:00) 7.9 18.61 (00:10) 8.33 (01:10) 15.6 8.6 0.2 4.8 2
19-12-2019 11.1 (23:59) 7.7 (12:10) 9.4 21.11 (20:20) 9.17 (02:40) 57.2 1 13.4 16.4 26.4

Gráficas

Temp. máximas Temp. mínimas Temp. medias Precipitaciones Rachas de viento máximas Velocidades máximas media en intervalos de 10 minutos

Datos horarios

Fecha y hora oficial Temperatura (ºC) Velocidad del viento (km/h) Dirección del viento Racha (km/h) Dirección de racha Precipitación (mm) Presión (hPa) Tendencia (hPa) Humedad (%)
2020-01-17 23:00:00 0.2 5 Oeste 8 Noroeste 0 -- -- 92
2020-01-17 22:00:00 1.1 3 Oeste 6 Sudoeste 0 -- -- 90
2020-01-17 21:00:00 2.3 4 Este 8 Sur 0 -- -- 88
2020-01-17 20:00:00 3.5 3 Este 13 Este 0 -- -- 84
2020-01-17 19:00:00 5 0 Calma 10 Norte 0 -- -- 78
2020-01-17 18:00:00 6.6 3 Nordeste 14 Norte 0 -- -- 72
2020-01-17 17:00:00 7.2 10 Norte 19 Noroeste 0 -- -- 72
2020-01-17 16:00:00 10.1 10 Oeste 25 Sudoeste 0 -- -- 63
2020-01-17 15:00:00 10.4 14 Sudoeste 30 Oeste 0 -- -- 52
2020-01-17 14:00:00 10.2 20 Sudoeste 30 Sudoeste 0 -- -- 53
2020-01-17 13:00:00 9.8 17 Sudoeste 28 Sudoeste 0 -- -- 57
2020-01-17 12:00:00 8.3 17 Oeste 34 Oeste 0 -- -- 63
2020-01-17 11:00:00 7.1 21 Oeste 36 Oeste 0 -- -- 72
2020-01-17 10:00:00 5.7 13 Oeste 35 Sudoeste 0 -- -- 78
2020-01-17 09:00:00 5 19 Oeste 33 Oeste 0 -- -- 80
2020-01-17 08:00:00 5.6 17 Oeste 27 Oeste 0 -- -- 79
2020-01-17 07:00:00 6.2 16 Oeste 29 Oeste 0 -- -- 85
2020-01-17 06:00:00 6.2 15 Oeste 40 Oeste 0 -- -- 85
2020-01-17 05:00:00 7.2 27 Sudoeste 53 Oeste 0 -- -- 82
2020-01-17 04:00:00 7.5 17 Sudoeste 33 Sudoeste 0 -- -- 83
2020-01-17 03:00:00 7.9 17 Sudoeste 34 Sudoeste 0 -- -- 80
2020-01-17 02:00:00 8 18 Oeste 40 Sudoeste 0 -- -- 79
2020-01-17 01:00:00 8.2 18 Sudoeste 40 Sudoeste 0 -- -- 76
2020-01-17 00:00:00 8.5 22 Sudoeste 48 Sudoeste 0 -- -- 77
2020-01-16 23:00:00 8.5 17 Sudoeste 48 Sudoeste 0 -- -- 75
2020-01-16 22:00:00 8.9 25 Sudoeste 48 Sudoeste 0 -- -- 70
2020-01-16 21:00:00 9.7 23 Sudoeste 55 Sudoeste 0 -- -- 61
2020-01-16 20:00:00 10.2 26 Sudoeste 58 Sudoeste 0 -- -- 53
2020-01-16 19:00:00 10.3 26 Sudoeste 51 Sudoeste 0 -- -- 52
2020-01-16 18:00:00 11 18 Sudoeste 46 Sudoeste 0 -- -- 51
2020-01-16 17:00:00 11.8 24 Sudoeste 50 Sudoeste 0 -- -- 51
2020-01-16 16:00:00 13.4 27 Sudoeste 58 Sudoeste 0 -- -- 51
2020-01-16 15:00:00 13.4 22 Sudoeste 50 Sudoeste 0 -- -- 55
2020-01-16 14:00:00 13.1 15 Sudoeste 42 Sudoeste 0 -- -- 65
2020-01-16 13:00:00 11 13 Sur 37 Sudoeste 0 -- -- 76
2020-01-16 12:00:00 11.2 22 Sudoeste 45 Sudoeste 0 -- -- 74
2020-01-16 11:00:00 10.7 21 Sudoeste 39 Sudoeste 0 -- -- 78
2020-01-16 10:00:00 9.1 8 Sur 32 Sudoeste 0 -- -- 84
2020-01-16 09:00:00 8.8 14 Sudoeste 30 Sudoeste 0 -- -- 85
2020-01-16 08:00:00 8.8 8 Sur 25 Sudoeste 0 -- -- 83
2020-01-16 07:00:00 9.1 5 Sudeste 21 Sudoeste 0 -- -- 82
2020-01-16 06:00:00 9.5 9 Sur 28 Sudoeste 0 -- -- 82
2020-01-16 05:00:00 9.7 15 Sudoeste 30 Sur 0 -- -- 82
2020-01-16 04:00:00 9.3 7 Sur 27 Sudoeste 0 -- -- 84
2020-01-16 03:00:00 9.4 11 Sudoeste 28 Sudoeste 0 -- -- 86
2020-01-16 02:00:00 9.5 5 Sur 37 Sudoeste 0 -- -- 84
2020-01-16 01:00:00 8.9 8 Sur 25 Sur 0 -- -- 85
2020-01-16 00:00:00 9.4 16 Sudoeste 33 Sudoeste 0 -- -- 84
2020-01-15 23:00:00 9.3 13 Sur 26 Sur 0 -- -- 82
2020-01-15 22:00:00 8.9 8 Sur 35 Sudoeste 0 -- -- 82
2020-01-15 21:00:00 8.8 15 Sudoeste 29 Sudoeste 0 -- -- 81
2020-01-15 20:00:00 9.1 9 Sur 24 Sur 0 -- -- 79
2020-01-15 19:00:00 8.8 14 Sudoeste 28 Sudoeste 0 -- -- 80
2020-01-15 18:00:00 9.3 14 Sudoeste 30 Sudoeste 0 -- -- 77
2020-01-15 17:00:00 9.5 13 Sudoeste 31 Sur 0 -- -- 77
2020-01-15 16:00:00 10.4 17 Sudoeste 37 Sudoeste 0 -- -- 72
2020-01-15 15:00:00 10 22 Sudoeste 39 Sudoeste 0 -- -- 72
2020-01-15 14:00:00 10.3 19 Sudoeste 42 Sudoeste 0 -- -- 72
2020-01-15 13:00:00 10 24 Oeste 49 Sudoeste 0 -- -- 73
2020-01-15 12:00:00 8.3 15 Sudoeste 45 Sudoeste 0.2 -- -- 82
2020-01-15 11:00:00 7.8 20 Sudoeste 44 Sudoeste 0 -- -- 84
2020-01-15 10:00:00 8.3 21 Sudoeste 51 Sudoeste 0 -- -- 79
2020-01-15 09:00:00 7.9 23 Sudoeste 49 Sudoeste 0 -- -- 80
2020-01-15 08:00:00 7.8 24 Sudoeste 63 Sur 0 -- -- 78
2020-01-15 07:00:00 7.6 22 Sudoeste 48 Sudoeste 0 -- -- 79
2020-01-15 06:00:00 7.8 25 Sudoeste 52 Sudoeste 0 -- -- 79
2020-01-15 05:00:00 7.7 26 Sudoeste 59 Sudoeste 0 -- -- 80
2020-01-15 04:00:00 7.8 31 Sudoeste 54 Sudoeste 0 -- -- 81
2020-01-15 03:00:00 7.4 28 Sudoeste 62 Sudoeste 0 -- -- 85
2020-01-15 02:00:00 7.5 24 Sudoeste 59 Sudoeste 0 -- -- 84
2020-01-15 01:00:00 7.2 28 Sudoeste 61 Sudoeste 0 -- -- 83
2020-01-15 00:00:00 7.1 24 Sudoeste 50 Sudoeste 0 -- -- 83
2020-01-14 23:00:00 7 24 Sudoeste 46 Sudoeste 0 -- -- 81
2020-01-14 22:00:00 7.1 19 Sudoeste 36 Sudoeste 0 -- -- 78
2020-01-14 21:00:00 7.5 15 Sudoeste 40 Sudoeste 0 -- -- 75
2020-01-14 20:00:00 7.9 17 Sudoeste 39 Sudoeste 0 -- -- 74
2020-01-14 19:00:00 7.9 10 Sudoeste 33 Sudoeste 0 -- -- 71
2020-01-14 18:00:00 8 10 Sudoeste 36 Sudoeste 0 -- -- 70
2020-01-14 17:00:00 8.4 14 Sudoeste 40 Sudoeste 0 -- -- 72
2020-01-14 16:00:00 10.2 15 Sudoeste 40 Oeste 0 -- -- 66
2020-01-14 15:00:00 10.1 21 Sudoeste 42 Sudoeste 0 -- -- 65
2020-01-14 14:00:00 8 18 Sudoeste 39 Sudoeste 0 -- -- 72
2020-01-14 13:00:00 5.8 13 Sudoeste 35 Oeste 0 -- -- 76
2020-01-14 12:00:00 5.9 21 Sudoeste 45 Sudoeste 0 -- -- 79
2020-01-14 11:00:00 5 22 Sudoeste 47 Sur 0 -- -- 82
2020-01-14 10:00:00 3.9 21 Sudoeste 37 Sudoeste 0 -- -- 89
2020-01-14 09:00:00 3.5 17 Sudoeste 41 Sudoeste 0 -- -- 91
2020-01-14 08:00:00 3.4 18 Sudoeste 36 Sudoeste 0 -- -- 89
2020-01-14 07:00:00 2.8 11 Oeste 22 Oeste 0 -- -- 91
2020-01-14 06:00:00 2.8 12 Oeste 24 Sudoeste 0 -- -- 90
2020-01-14 05:00:00 2.9 9 Sudoeste 23 Sudoeste 0 -- -- 90
2020-01-14 04:00:00 2.5 15 Sudoeste 29 Sudoeste 0 -- -- 90
2020-01-14 03:00:00 2.7 13 Sudoeste 40 Sudoeste 0 -- -- 87
2020-01-14 02:00:00 2.1 12 Sudoeste 27 Sudoeste 0 -- -- 88
2020-01-14 01:00:00 2.2 12 Oeste 25 Sudoeste 0 -- -- 87
2020-01-14 00:00:00 1.7 9 Sudoeste 21 Sudoeste 0 -- -- 87
2020-01-13 23:00:00 1.2 7 Sudoeste 23 Sudoeste 0 -- -- 87
2020-01-13 22:00:00 1 13 Sudoeste 43 Sudoeste 0 -- -- 86
2020-01-13 21:00:00 0.9 19 Sudoeste 37 Sudoeste 0 -- -- 83
2020-01-13 20:00:00 0.4 15 Sudoeste 37 Sudoeste 0 -- -- 83
2020-01-13 19:00:00 1 13 Sudoeste 28 Sudoeste 0 -- -- 80
2020-01-13 18:00:00 2.7 10 Oeste 26 Oeste 0 -- -- 71
2020-01-13 17:00:00 5.1 16 Sur 34 Sudoeste 0 -- -- 62
2020-01-13 16:00:00 8 19 Sudoeste 36 Sudoeste 0 -- -- 52
2020-01-13 15:00:00 6.3 13 Sur 32 Sur 0 -- -- 54
2020-01-13 14:00:00 6.5 19 Sudoeste 29 Sudoeste 0 -- -- 49
2020-01-13 13:00:00 3.8 6 Noroeste 23 Sudoeste 0 -- -- 75
2020-01-13 12:00:00 2.4 10 Oeste 19 Oeste 0 -- -- 89
2020-01-13 11:00:00 -1.2 3 Oeste 10 Sudoeste 0 -- -- 96
2020-01-13 10:00:00 -3.7 6 Oeste 10 Noroeste 0 -- -- 96
2020-01-13 09:00:00 -4.3 2 Noroeste 5 Noroeste 0 -- -- 95
2020-01-13 08:00:00 -3.9 0 Calma 9 Noroeste 0 -- -- 97
2020-01-13 07:00:00 -5.1 5 Oeste 12 Noroeste 0 -- -- 97
2020-01-13 06:00:00 -5.5 6 Noroeste 10 Oeste 0 -- -- 96
2020-01-13 05:00:00 -5.6 8 Oeste 10 Oeste 0 -- -- 96
2020-01-13 04:00:00 -4.7 3 Noroeste 8 Noroeste 0 -- -- 97
2020-01-13 03:00:00 -4.6 3 Noroeste 7 Oeste 0 -- -- 97
2020-01-13 02:00:00 -4.5 5 Sudoeste 8 Oeste 0 -- -- 96
2020-01-13 01:00:00 -3.6 0 Calma 5 Oeste 0 -- -- 96
2020-01-13 00:00:00 -3.1 4 Oeste 9 Noroeste 0 -- -- 96
2020-01-12 23:00:00 -2.7 4 Oeste 6 Oeste 0 -- -- 95
2020-01-12 22:00:00 -1.7 3 Noroeste 9 Noroeste 0 -- -- 95
2020-01-12 21:00:00 -0.8 6 Noroeste 10 Noroeste 0 -- -- 94
2020-01-12 20:00:00 0.1 6 Noroeste 9 Oeste 0 -- -- 91
2020-01-12 19:00:00 2.5 8 Noroeste 10 Oeste 0 -- -- 86
2020-01-12 18:00:00 6.4 5 Este 8 Este 0 -- -- 71
2020-01-12 17:00:00 8.8 6 Este 9 Este 0 -- -- 62
2020-01-12 16:00:00 8.7 6 Sudeste 12 Este 0 -- -- 65
2020-01-12 15:00:00 6.7 7 Este 13 Este 0 -- -- 71
2020-01-12 14:00:00 4.1 9 Este 12 Este 0 -- -- 81
2020-01-12 13:00:00 2.1 8 Sudeste 12 Sudeste 0 -- -- 92
2020-01-12 12:00:00 -0.7 4 Sudeste 7 Sudeste 0 -- -- 98
2020-01-12 11:00:00 -2.9 3 Noroeste 7 Noroeste 0 -- -- 98
2020-01-12 10:00:00 -3.3 4 Noroeste 10 Noroeste 0 -- -- 97
2020-01-12 09:00:00 -4.1 3 Noroeste 6 Oeste 0 -- -- 97
2020-01-12 08:00:00 -5.2 0 Calma 4 Noroeste 0 -- -- 96
2020-01-12 07:00:00 -5.2 0 Calma 4 Este 0 -- -- 96
2020-01-12 06:00:00 -5.2 0 Calma 6 Noroeste 0 -- -- 97
2020-01-12 05:00:00 -5.5 4 Noroeste 5 Noroeste 0 -- -- 96
2020-01-12 04:00:00 -5.2 0 Calma 3 Nordeste 0 -- -- 96
2020-01-12 03:00:00 -4.9 3 Oeste 6 Oeste 0 -- -- 96
2020-01-12 02:00:00 -4.3 3 Oeste 5 Oeste 0 -- -- 96
2020-01-12 01:00:00 -3.3 2 Oeste 9 Oeste 0 -- -- 96
2020-01-12 00:00:00 -2.5 6 Oeste 11 Oeste 0 -- -- 96
2020-01-11 23:00:00 -2.1 6 Oeste 11 Noroeste 0 -- -- 95
2020-01-11 22:00:00 -1.3 7 Noroeste 10 Oeste 0 -- -- 94
2020-01-11 21:00:00 -0.1 3 Oeste 8 Noroeste 0 -- -- 91
2020-01-11 20:00:00 1.5 4 Noroeste 7 Noroeste 0 -- -- 88
2020-01-11 19:00:00 3.7 5 Noroeste 9 Noroeste 0 -- -- 81
2020-01-11 18:00:00 7.9 3 Oeste 14 Oeste 0 -- -- 65
2020-01-11 17:00:00 10.7 8 Oeste 15 Oeste 0 -- -- 55
2020-01-11 16:00:00 11 9 Sudoeste 16 Oeste 0 -- -- 54
2020-01-11 15:00:00 10.3 6 Sudoeste 10 Sudoeste 0 -- -- 55
2020-01-11 14:00:00 8 4 Este 12 Este 0 -- -- 70
2020-01-11 13:00:00 5.5 3 Este 6 Sur 0 -- -- 85
2020-01-11 12:00:00 1.5 2 Este 6 Este 0 -- -- 99
2020-01-11 11:00:00 -0.8 2 Este 10 Oeste 0 -- -- 100
2020-01-11 10:00:00 -1.9 5 Noroeste 10 Oeste 0 -- -- 99
2020-01-11 09:00:00 -1.5 4 Noroeste 8 Norte 0 -- -- 99
2020-01-11 08:00:00 -1.5 4 Noroeste 6 Noroeste 0 -- -- 98
2020-01-11 07:00:00 -1 3 Noroeste 5 Noroeste 0 -- -- 98
2020-01-11 06:00:00 -0.7 4 Norte 8 Noroeste 0 -- -- 98
2020-01-11 05:00:00 0.2 3 Norte 8 Norte 0 -- -- 98
2020-01-11 04:00:00 0.8 2 Norte 5 Noroeste 0 -- -- 98
2020-01-11 03:00:00 0 5 Noroeste 8 Oeste 0 -- -- 98
2020-01-11 02:00:00 -0.7 3 Sudoeste 9 Noroeste 0 -- -- 96
2020-01-11 01:00:00 0.7 3 Sudoeste 6 Nordeste 0 -- -- 95
2020-01-11 00:00:00 2.1 0 Calma 9 Este 0 -- -- 95
2020-01-10 23:00:00 2.8 5 Este 14 Noroeste 0 -- -- 94
2020-01-10 22:00:00 2.2 6 Oeste 9 Oeste 0 -- -- 95
2020-01-10 21:00:00 2.5 3 Norte 6 Noroeste 0 -- -- 93
2020-01-10 20:00:00 3.3 3 Sudoeste 9 Noroeste 0 -- -- 92
2020-01-10 19:00:00 4.1 8 Oeste 12 Oeste 0 -- -- 90
2020-01-10 18:00:00 4.9 5 Norte 18 Nordeste 0 -- -- 84
2020-01-10 17:00:00 5.8 6 Norte 23 Norte 0 -- -- 79
2020-01-10 16:00:00 6.8 8 Norte 31 Noroeste 0 -- -- 73
2020-01-10 15:00:00 6.6 11 Oeste 33 Noroeste 0 -- -- 84
2020-01-10 14:00:00 6.5 13 Noroeste 25 Noroeste 0 -- -- 82
2020-01-10 13:00:00 6.2 7 Norte 19 Norte 0.4 -- -- 86
2020-01-10 12:00:00 5.2 5 Noroeste 14 Norte 0.4 -- -- 93
2020-01-10 11:00:00 2.6 2 Oeste 9 Sudoeste 0 -- -- 97
2020-01-10 10:00:00 1.1 3 Sudeste 9 Este 0 -- -- 97
2020-01-10 09:00:00 0.6 8 Este 12 Nordeste 0 -- -- 97
2020-01-10 08:00:00 0 3 Noroeste 10 Sudoeste 0 -- -- 97
2020-01-10 07:00:00 -0.1 6 Oeste 17 Noroeste 0 -- -- 99
2020-01-10 06:00:00 -0.7 5 Oeste 11 Oeste 0 -- -- 97
2020-01-10 05:00:00 -0.4 4 Noroeste 8 Oeste 0 -- -- 97
2020-01-10 04:00:00 -1.1 3 Oeste 8 Oeste 0 -- -- 96
2020-01-10 03:00:00 -0.8 2 Oeste 8 Noroeste 0 -- -- 95
2020-01-10 02:00:00 0.4 6 Noroeste 9 Noroeste 0 -- -- 92
2020-01-10 01:00:00 2.5 5 Noroeste 9 Noroeste 0 -- -- 90
2020-01-10 00:00:00 4.3 6 Nordeste 14 Norte 0 -- -- 89
2020-01-09 23:00:00 5.9 8 Norte 23 Norte 0 -- -- 87
2020-01-09 22:00:00 6.3 6 Norte 14 Norte 0 -- -- 94
2020-01-09 21:00:00 6.4 5 Este 8 Nordeste 0 -- -- 94
2020-01-09 20:00:00 6.5 6 Nordeste 10 Nordeste 0 -- -- 94
2020-01-09 19:00:00 6.8 3 Oeste 9 Noroeste 0 -- -- 91
2020-01-09 18:00:00 7.1 3 Noroeste 15 Sudoeste 0 -- -- 87
2020-01-09 17:00:00 7.2 14 Sudoeste 29 Sudoeste 0 -- -- 85
2020-01-09 16:00:00 8.9 7 Sudeste 19 Sudeste 0 -- -- 73
2020-01-09 15:00:00 10.8 9 Sur 34 Sudeste 0 -- -- 64
2020-01-09 14:00:00 8.5 18 Sudeste 33 Sudeste 0 -- -- 66
2020-01-09 13:00:00 10.1 10 Sudeste 21 Sudoeste 0 -- -- 61
2020-01-09 12:00:00 9.6 5 Noroeste 10 Oeste 0 -- -- 65
2020-01-09 11:00:00 5.2 4 Oeste 14 Oeste 0 -- -- 91
2020-01-09 10:00:00 0.4 4 Oeste 8 Noroeste 0 -- -- 98
2020-01-09 09:00:00 -1.5 2 Este 6 Oeste 0 -- -- 98
2020-01-09 08:00:00 -1.5 0 Calma 10 Oeste 0 -- -- 98
2020-01-09 07:00:00 -1.2 5 Este 9 Sudeste 0 -- -- 97
2020-01-09 06:00:00 -2 2 Oeste 9 Oeste 0 -- -- 97
2020-01-09 05:00:00 -1.6 2 Oeste 8 Oeste 0 -- -- 97
2020-01-09 04:00:00 -1.5 5 Oeste 9 Oeste 0 -- -- 96
2020-01-09 03:00:00 -0.8 3 Oeste 5 Oeste 0 -- -- 96
2020-01-09 02:00:00 0.1 0 Calma 5 Oeste 0 -- -- 95
2020-01-09 01:00:00 0.7 2 Oeste 7 Oeste 0 -- -- 95
2020-01-09 00:00:00 1.1 4 Noroeste 10 Noroeste 0 -- -- 95
2020-01-08 23:00:00 1.2 5 Oeste 10 Noroeste 0 -- -- 93
2020-01-08 22:00:00 1.6 4 Oeste 10 Noroeste 0 -- -- 92
2020-01-08 21:00:00 2.7 8 Oeste 12 Noroeste 0 -- -- 90
2020-01-08 20:00:00 4.5 2 Noroeste 8 Oeste 0 -- -- 85
2020-01-08 19:00:00 6.7 7 Oeste 9 Oeste 0 -- -- 78
2020-01-08 18:00:00 12.1 0 Calma 6 Este 0 -- -- 61
2020-01-08 17:00:00 15.2 7 Sudeste 10 Sudeste 0 -- -- 49
2020-01-08 16:00:00 15.2 6 Sudeste 14 Este 0 -- -- 46
2020-01-08 15:00:00 14.7 6 Este 9 Sudeste 0 -- -- 50
2020-01-08 14:00:00 11.7 0 Calma 10 Sudeste 0 -- -- 55
2020-01-08 13:00:00 7.7 0 Calma 7 Sudeste 0 -- -- 66
2020-01-08 12:00:00 3.3 0 Calma 5 Este 0 -- -- 83
2020-01-08 11:00:00 0.6 2 Sudeste 5 Sudeste 0 -- -- 92
2020-01-08 10:00:00 -1.3 2 Sudeste 5 Sudeste 0 -- -- 98
2020-01-08 09:00:00 -4 0 Calma 5 Oeste 0 -- -- 96
2020-01-08 08:00:00 -3.9 2 Nordeste 6 Oeste 0 -- -- 97
2020-01-08 07:00:00 -3.7 0 Calma 5 Oeste 0 -- -- 97
2020-01-08 06:00:00 -3.6 3 Oeste 5 Oeste 0 -- -- 96
2020-01-08 05:00:00 -3.5 3 Oeste 5 Oeste 0 -- -- 96
2020-01-08 04:00:00 -3.1 0 Calma 6 Noroeste 0 -- -- 96
2020-01-08 03:00:00 -2.8 2 Oeste 7 Noroeste 0 -- -- 96
2020-01-08 02:00:00 -2.5 3 Noroeste 8 Noroeste 0 -- -- 95
2020-01-08 01:00:00 -2 5 Noroeste 9 Noroeste 0 -- -- 95
2020-01-08 00:00:00 -1.5 5 Noroeste 9 Noroeste 0 -- -- 94
2020-01-07 23:00:00 -0.7 5 Noroeste 9 Noroeste 0 -- -- 92
2020-01-07 22:00:00 0.2 5 Oeste 10 Oeste 0 -- -- 90
2020-01-07 21:00:00 1 8 Noroeste 12 Noroeste 0 -- -- 88
2020-01-07 20:00:00 2.1 7 Oeste 17 Oeste 0 -- -- 84
2020-01-07 19:00:00 4.3 9 Oeste 13 Oeste 0 -- -- 76
2020-01-07 18:00:00 9.3 2 Oeste 7 Este 0 -- -- 56
2020-01-07 17:00:00 12.7 6 Este 9 Este 0 -- -- 48
2020-01-07 16:00:00 12.7 7 Este 14 Este 0 -- -- 52
2020-01-07 15:00:00 12.3 3 Sudeste 8 Sudeste 0 -- -- 53
2020-01-07 14:00:00 8.9 4 Sudeste 10 Sudeste 0 -- -- 63
2020-01-07 13:00:00 5.8 5 Este 10 Este 0 -- -- 74
2020-01-07 12:00:00 2.6 3 Este 9 Este 0 -- -- 90
2020-01-07 11:00:00 -0.7 5 Sudeste 7 Sudeste 0 -- -- 99
2020-01-07 10:00:00 -3.6 0 Calma 4 Sudeste 0 -- -- 98
2020-01-07 09:00:00 -5.2 3 Oeste 5 Sudoeste 0 -- -- 96
2020-01-07 08:00:00 -4.8 2 Sudoeste 5 Sudoeste 0 -- -- 96
2020-01-07 07:00:00 -4.2 3 Sudoeste 6 Sudoeste 0 -- -- 97
2020-01-07 06:00:00 -3.4 0 Calma 5 Sudoeste 0 -- -- 98
2020-01-07 05:00:00 -2.9 0 Calma 6 Este 0 -- -- 98
2020-01-07 04:00:00 -3.2 3 Sudoeste 8 Sudoeste 0 -- -- 97
2020-01-07 03:00:00 -2.5 2 Sudoeste 8 Sudoeste 0 -- -- 97
2020-01-07 02:00:00 -2.5 3 Sudoeste 8 Sudoeste 0 -- -- 97
2020-01-07 01:00:00 -2.5 2 Oeste 6 Noroeste 0 -- -- 97
2020-01-07 00:00:00 -3.1 3 Noroeste 10 Oeste 0 -- -- 96
2020-01-06 23:00:00 -2.9 6 Oeste 8 Oeste 0 -- -- 96
2020-01-06 22:00:00 -2.2 0 Calma 7 Oeste 0 -- -- 95
2020-01-06 21:00:00 -1.7 3 Oeste 12 Sudoeste 0 -- -- 94
2020-01-06 20:00:00 -0.6 8 Oeste 13 Oeste 0 -- -- 91
2020-01-06 19:00:00 1.1 8 Sudoeste 11 Sudoeste 0 -- -- 86
2020-01-06 18:00:00 4 3 Sudoeste 13 Sur 0 -- -- 76
2020-01-06 17:00:00 6.5 8 Sudoeste 18 Sudoeste 0 -- -- 68
2020-01-06 16:00:00 9 11 Sudoeste 19 Sudoeste 0 -- -- 58
2020-01-06 15:00:00 9 12 Sudoeste 17 Sudoeste 0 -- -- 61
2020-01-06 14:00:00 7.5 9 Sudoeste 14 Sudoeste 0 -- -- 65
2020-01-06 13:00:00 5.4 3 Sudoeste 9 Sur 0 -- -- 75
2020-01-06 12:00:00 1.9 3 Noroeste 7 Sudoeste 0 -- -- 85
2020-01-06 11:00:00 -0.9 4 Oeste 10 Oeste 0 -- -- 94
2020-01-06 10:00:00 -3.5 3 Oeste 9 Oeste 0 -- -- 95